createdAt,value
2023-01-04T00:02:06.044Z,6.43
2023-01-04T00:04:32.710Z,5.87
2023-01-04T00:06:59.231Z,3.57
2023-01-04T00:09:25.840Z,6.13
2023-01-04T00:11:52.272Z,5.40
2023-01-04T00:14:19.392Z,6.93
2023-01-04T00:16:45.815Z,5.90
2023-01-04T00:19:12.940Z,7.07
2023-01-04T00:21:39.396Z,6.07
2023-01-04T00:24:06.231Z,6.30
2023-01-04T00:26:34.143Z,5.20
2023-01-04T00:29:05.744Z,4.47
2023-01-04T00:31:33.259Z,8.00
2023-01-04T00:34:02.256Z,3.53
2023-01-04T00:36:29.225Z,3.40
2023-01-04T00:39:08.865Z,6.27
2023-01-04T00:42:07.561Z,4.40
2023-01-04T00:44:35.266Z,7.50
2023-01-04T00:47:03.402Z,4.37
2023-01-04T00:49:32.126Z,5.33
2023-01-04T00:51:58.663Z,5.43
2023-01-04T00:54:25.856Z,4.33
2023-01-04T00:56:52.790Z,5.53
2023-01-04T00:59:21.145Z,4.70
2023-01-04T01:01:48.866Z,5.77
2023-01-04T01:04:18.323Z,6.93
2023-01-04T01:06:44.953Z,4.63
2023-01-04T01:09:11.705Z,3.67
2023-01-04T01:11:39.572Z,5.43
2023-01-04T01:14:07.778Z,3.60
2023-01-04T01:19:21.041Z,5.60
2023-01-04T01:21:47.382Z,6.13
2023-01-04T01:24:18.695Z,4.83
2023-01-04T01:26:45.321Z,4.53
2023-01-04T01:29:11.710Z,4.17
2023-01-04T01:31:38.225Z,3.73
2023-01-04T01:34:04.703Z,5.70
2023-01-04T01:36:31.118Z,4.17
2023-01-04T01:38:57.567Z,3.30
2023-01-04T01:41:30.375Z,5.80
2023-01-04T01:44:06.956Z,3.83
2023-01-04T01:46:48.738Z,4.40
2023-01-04T01:49:32.425Z,6.23
2023-01-04T01:52:02.624Z,5.57
2023-01-04T01:54:34.269Z,5.77
2023-01-04T01:57:04.333Z,7.03
2023-01-04T01:59:34.230Z,5.17
2023-01-04T02:02:00.993Z,5.93
2023-01-04T02:04:28.102Z,6.00
2023-01-04T02:06:57.914Z,4.90
2023-01-04T02:09:24.626Z,4.90
2023-01-04T02:11:51.142Z,4.60
2023-01-04T02:14:29.745Z,5.23
2023-01-04T02:17:01.615Z,3.77
2023-01-04T02:19:55.462Z,4.00
2023-01-04T02:22:40.824Z,4.97
2023-01-04T02:25:44.717Z,5.07
2023-01-04T02:28:33.314Z,5.40
2023-01-04T02:31:21.279Z,5.40
2023-01-04T02:34:05.418Z,6.43
2023-01-04T02:36:43.292Z,5.03
2023-01-04T02:39:33.450Z,4.40
2023-01-04T02:42:12.579Z,7.37
2023-01-04T02:44:54.265Z,2.57
2023-01-04T02:47:51.891Z,4.93
2023-01-04T02:50:52.363Z,2.87
2023-01-04T02:53:22.707Z,6.47
2023-01-04T02:56:17.561Z,3.00
2023-01-04T02:59:14.540Z,9.03
2023-01-04T03:02:02.656Z,5.30
2023-01-04T03:05:15.382Z,4.30
2023-01-04T03:08:11.224Z,6.43
2023-01-04T03:10:44.490Z,5.33
2023-01-04T03:13:18.255Z,4.37
2023-01-04T03:15:50.780Z,2.47
2023-01-04T03:18:23.857Z,7.03
2023-01-04T03:20:52.294Z,4.60
2023-01-04T03:23:41.702Z,8.97
2023-01-04T03:26:33.617Z,6.80
2023-01-04T03:29:25.657Z,4.60
2023-01-04T03:32:20.101Z,4.83
2023-01-04T03:35:06.437Z,7.30
2023-01-04T03:37:42.357Z,4.07
2023-01-04T03:40:45.777Z,3.60
2023-01-04T03:43:46.265Z,7.00
2023-01-04T03:46:53.251Z,6.10
2023-01-04T03:49:30.021Z,5.10
2023-01-04T03:52:00.365Z,4.00
2023-01-04T03:54:41.250Z,4.80
2023-01-04T03:57:09.312Z,5.33
2023-01-04T03:59:47.897Z,6.43
2023-01-04T04:02:19.285Z,4.30
2023-01-04T04:05:05.067Z,4.37
2023-01-04T04:07:50.739Z,5.13
2023-01-04T04:10:17.334Z,4.57
2023-01-04T04:12:43.744Z,4.63
2023-01-04T04:15:10.654Z,5.40
2023-01-04T04:17:37.028Z,3.40
2023-01-04T04:20:03.688Z,4.50
2023-01-04T04:22:30.095Z,3.23
2023-01-04T04:24:56.604Z,6.70
2023-01-04T04:27:23.132Z,6.00
2023-01-04T04:29:49.528Z,5.10
2023-01-04T04:32:16.017Z,4.60
2023-01-04T04:34:42.509Z,6.53
2023-01-04T04:37:09.334Z,7.47
2023-01-04T04:39:35.860Z,5.57
2023-01-04T04:42:03.430Z,5.57
2023-01-04T04:44:29.840Z,8.30
2023-01-04T04:46:56.540Z,6.10
2023-01-04T04:49:23.004Z,4.33
2023-01-04T04:51:49.416Z,5.93
2023-01-04T04:54:18.838Z,5.20
2023-01-04T04:56:45.286Z,5.90
2023-01-04T04:59:11.730Z,6.17
2023-01-04T05:01:38.267Z,7.00
2023-01-04T05:04:04.999Z,10.90
2023-01-04T05:06:32.033Z,5.20
2023-01-04T05:08:58.574Z,6.17
2023-01-04T05:11:43.817Z,5.13
2023-01-04T05:14:10.603Z,5.03
2023-01-04T05:16:37.247Z,4.37
2023-01-04T05:19:03.696Z,5.40
2023-01-04T05:21:30.116Z,6.77
2023-01-04T05:23:57.538Z,5.77
2023-01-04T05:26:24.173Z,6.30
2023-01-04T05:28:53.844Z,6.20
2023-01-04T05:31:21.631Z,8.03
2023-01-04T05:33:48.143Z,6.07
2023-01-04T05:36:14.624Z,3.93
2023-01-04T05:38:40.998Z,5.10
2023-01-04T05:41:27.913Z,6.73
2023-01-04T05:43:54.562Z,7.03
2023-01-04T05:46:21.354Z,6.20
2023-01-04T05:48:47.772Z,5.50
2023-01-04T05:51:14.182Z,4.30
2023-01-04T05:53:40.623Z,6.40
2023-01-04T05:56:07.168Z,4.53
2023-01-04T05:58:33.660Z,4.37
2023-01-04T06:01:00.045Z,5.70
2023-01-04T06:03:28.107Z,4.77
2023-01-04T06:05:54.631Z,9.17
2023-01-04T06:08:21.038Z,6.70
2023-01-04T06:10:53.226Z,6.73
2023-01-04T06:13:20.430Z,7.10
2023-01-04T06:15:46.864Z,6.63
2023-01-04T06:18:13.962Z,6.97
2023-01-04T06:20:40.622Z,8.03
2023-01-04T06:23:08.908Z,5.70
2023-01-04T06:25:35.444Z,6.83
2023-01-04T06:28:02.828Z,7.73
2023-01-04T06:30:29.287Z,10.47
2023-01-04T06:32:55.817Z,4.50
2023-01-04T06:35:22.189Z,5.43
2023-01-04T06:37:48.607Z,3.23
2023-01-04T06:40:15.039Z,3.30
2023-01-04T06:42:47.115Z,2.27
2023-01-04T06:45:15.272Z,5.10
2023-01-04T06:47:42.089Z,3.00
2023-01-04T06:50:09.099Z,4.80
2023-01-04T06:52:35.687Z,1.93
2023-01-04T06:55:02.067Z,2.30
2023-01-04T06:57:28.578Z,1.50
2023-01-04T06:59:55.058Z,4.20
2023-01-04T07:02:21.568Z,2.60
2023-01-04T07:04:48.234Z,1.50
2023-01-04T07:07:14.676Z,1.90
2023-01-04T07:09:41.205Z,2.70
2023-01-04T07:12:07.723Z,1.60
2023-01-04T07:14:34.441Z,1.43
2023-01-04T07:17:01.034Z,2.30
2023-01-04T07:19:28.020Z,2.43
2023-01-04T07:21:54.543Z,2.77
2023-01-04T07:24:26.133Z,1.53
2023-01-04T07:26:56.505Z,2.97
2023-01-04T07:29:23.086Z,2.57
2023-01-04T07:31:51.492Z,1.20
2023-01-04T07:34:21.091Z,1.53
2023-01-04T07:36:48.776Z,2.10
2023-01-04T07:39:16.292Z,1.37
2023-01-04T07:41:43.500Z,1.53
2023-01-04T07:44:11.427Z,1.30
2023-01-04T07:46:38.880Z,2.43
2023-01-04T07:49:08.993Z,1.80
2023-01-04T07:51:38.057Z,1.43
2023-01-04T07:54:04.897Z,1.70
2023-01-04T07:56:31.425Z,2.13
2023-01-04T07:58:59.251Z,2.00
2023-01-04T08:01:27.049Z,1.30
2023-01-04T08:03:54.218Z,1.30
2023-01-04T08:06:21.770Z,1.83
2023-01-04T08:08:48.665Z,3.33
2023-01-04T08:11:17.487Z,1.40
2023-01-04T08:13:43.946Z,1.77
2023-01-04T08:16:23.737Z,2.07
2023-01-04T08:19:00.494Z,1.77
2023-01-04T08:21:29.868Z,1.83
2023-01-04T08:23:56.443Z,1.43
2023-01-04T08:26:23.159Z,2.33
2023-01-04T08:28:50.465Z,1.30
2023-01-04T08:31:19.924Z,1.70
2023-01-04T08:33:47.775Z,1.30
2023-01-04T08:36:26.745Z,1.43
2023-01-04T08:39:01.739Z,2.87
2023-01-04T08:41:56.787Z,1.80
2023-01-04T08:44:18.874Z,2.13
2023-01-04T08:46:45.598Z,3.83
2023-01-04T08:49:12.200Z,1.90
2023-01-04T08:51:38.638Z,1.30
2023-01-04T08:54:05.119Z,3.47
2023-01-04T08:56:31.639Z,1.43
2023-01-04T08:58:58.191Z,1.33
2023-01-04T09:01:24.760Z,3.17
2023-01-04T09:03:51.255Z,1.90
2023-01-04T09:06:18.070Z,1.57
2023-01-04T09:08:44.734Z,2.73
2023-01-04T09:11:16.786Z,3.37
2023-01-04T09:13:43.796Z,2.97
2023-01-04T09:16:13.479Z,3.27
2023-01-04T09:18:40.642Z,3.30
2023-01-04T09:21:13.278Z,1.47
2023-01-04T09:23:40.979Z,1.70
2023-01-04T09:26:22.260Z,3.30
2023-01-04T09:28:50.080Z,2.33
2023-01-04T09:31:19.518Z,1.97
2023-01-04T09:36:33.305Z,1.80
2023-01-04T09:38:59.723Z,2.60
2023-01-04T09:41:34.575Z,1.60
2023-01-04T09:44:03.305Z,1.80
2023-01-04T09:46:50.204Z,1.40
2023-01-04T09:49:30.495Z,2.53
2023-01-04T09:52:00.507Z,1.67
2023-01-04T09:54:46.506Z,2.17
2023-01-04T09:57:25.169Z,1.87
2023-01-04T10:00:01.116Z,1.30
2023-01-04T10:02:42.995Z,1.30
2023-01-04T10:05:18.081Z,1.47
2023-01-04T10:07:44.570Z,1.83
2023-01-04T10:10:20.714Z,1.20
2023-01-04T10:13:25.105Z,2.57
2023-01-04T10:16:30.295Z,1.30
2023-01-04T10:20:59.872Z,1.67
2023-01-04T10:22:25.894Z,0.83
2023-01-04T10:25:28.337Z,3.67
2023-01-04T10:28:21.885Z,1.37
2023-01-04T10:31:40.433Z,1.20
2023-01-04T10:34:29.797Z,1.50
2023-01-04T10:37:04.957Z,1.00
2023-01-04T10:39:35.972Z,1.67
2023-01-04T10:42:18.379Z,1.80
2023-01-04T10:45:08.596Z,3.10
2023-01-04T10:47:39.669Z,1.40
2023-01-04T10:50:19.176Z,0.87
2023-01-04T10:52:53.561Z,1.83
2023-01-04T10:55:31.600Z,0.80
2023-01-04T10:58:21.180Z,2.00
2023-01-04T11:00:56.930Z,3.03
2023-01-04T11:03:39.562Z,0.90
2023-01-04T11:06:15.614Z,2.53
2023-01-04T11:08:51.197Z,1.33
2023-01-04T11:11:24.942Z,1.00
2023-01-04T11:13:51.724Z,1.10
2023-01-04T11:16:18.535Z,1.03
2023-01-04T11:18:48.516Z,0.70
2023-01-04T11:21:18.776Z,0.77
2023-01-04T11:23:45.157Z,1.07
2023-01-04T11:26:21.977Z,0.80
2023-01-04T11:29:16.318Z,0.73
2023-01-04T11:32:02.592Z,1.33
2023-01-04T11:34:57.600Z,0.90
2023-01-04T11:37:25.429Z,2.40
2023-01-04T11:39:52.042Z,2.00
2023-01-04T11:42:21.965Z,0.70
2023-01-04T11:44:58.694Z,0.70
2023-01-04T11:47:28.276Z,0.70
2023-01-04T11:49:56.706Z,1.33
2023-01-04T11:52:35.581Z,1.17
2023-01-04T11:55:17.134Z,0.57
2023-01-04T11:57:43.858Z,1.23
2023-01-04T12:00:15.362Z,1.50
2023-01-04T12:03:00.758Z,0.60
2023-01-04T12:05:32.301Z,0.90
2023-01-04T12:07:59.438Z,1.20
2023-01-04T12:10:28.172Z,1.10
2023-01-04T12:12:56.859Z,0.80
2023-01-04T12:15:48.058Z,0.60
2023-01-04T12:18:39.505Z,1.20
2023-01-04T12:21:06.091Z,0.70
2023-01-04T12:23:34.155Z,2.97
2023-01-04T12:26:02.598Z,1.10
2023-01-04T12:28:32.322Z,0.90
2023-01-04T12:31:19.809Z,1.10
2023-01-04T12:33:51.640Z,0.80
2023-01-04T12:36:39.126Z,0.80
2023-01-04T12:39:29.192Z,1.10
2023-01-04T12:42:03.192Z,1.07
2023-01-04T12:44:39.081Z,1.10
2023-01-04T12:47:36.722Z,1.33
2023-01-04T12:50:13.481Z,1.43
2023-01-04T12:53:02.401Z,1.60
2023-01-04T12:55:32.720Z,2.20
2023-01-04T12:58:01.020Z,1.60
2023-01-04T13:00:52.343Z,1.87
2023-01-04T13:03:20.402Z,1.83
2023-01-04T13:05:57.349Z,1.40
2023-01-04T13:08:24.906Z,1.60
2023-01-04T13:10:56.166Z,1.80
2023-01-04T13:13:49.241Z,1.67
2023-01-04T13:16:35.576Z,2.53
2023-01-04T13:19:12.446Z,1.90
2023-01-04T13:21:41.983Z,3.37
2023-01-04T13:24:28.634Z,2.90
2023-01-04T13:26:55.393Z,2.50
2023-01-04T13:29:25.316Z,3.00
2023-01-04T13:31:58.892Z,2.30
2023-01-04T13:34:34.281Z,2.20
2023-01-04T13:37:10.217Z,3.03
2023-01-04T13:39:48.638Z,2.73
2023-01-04T13:42:28.192Z,3.03
2023-01-04T13:45:21.612Z,3.07
2023-01-04T13:47:51.751Z,3.90
2023-01-04T13:50:28.021Z,2.63
2023-01-04T13:53:06.079Z,2.80
2023-01-04T13:55:37.491Z,2.70
2023-01-04T13:58:17.816Z,2.80
2023-01-04T14:00:52.784Z,3.27
2023-01-04T14:03:29.377Z,4.37
2023-01-04T14:06:10.503Z,3.30
2023-01-04T14:08:52.815Z,2.70
2023-01-04T14:11:42.780Z,3.40
2023-01-04T14:14:20.658Z,3.47
2023-01-04T14:16:47.584Z,3.43
2023-01-04T14:19:42.193Z,3.40
2023-01-04T14:22:21.789Z,3.47
2023-01-04T14:27:40.024Z,6.70
2023-01-04T14:30:18.722Z,4.50
2023-01-04T14:33:00.183Z,4.40
2023-01-04T14:35:28.949Z,3.93
2023-01-04T14:38:02.627Z,3.63
2023-01-04T14:40:31.799Z,4.60
2023-01-04T14:42:58.731Z,3.87
2023-01-04T14:45:25.348Z,3.60
2023-01-04T14:47:51.724Z,3.47
2023-01-04T14:50:18.322Z,3.53
2023-01-04T14:52:52.502Z,3.27
2023-01-04T14:55:19.718Z,3.10
2023-01-04T14:57:46.128Z,3.50
2023-01-04T15:00:19.538Z,4.07
2023-01-04T15:02:50.215Z,3.53
2023-01-04T15:05:19.892Z,5.63
2023-01-04T15:07:46.591Z,4.63
2023-01-04T15:10:29.062Z,3.37
2023-01-04T15:12:58.970Z,5.67
2023-01-04T15:15:25.373Z,4.60
2023-01-04T15:17:51.812Z,4.87
2023-01-04T15:20:18.300Z,5.27
2023-01-04T15:22:44.908Z,3.93
2023-01-04T15:25:11.857Z,4.20
2023-01-04T15:27:42.177Z,6.77
2023-01-04T15:30:10.792Z,4.40
2023-01-04T15:32:37.254Z,5.03
2023-01-04T15:35:04.510Z,5.80
2023-01-04T15:37:31.332Z,4.60
2023-01-04T15:40:02.331Z,6.10
2023-01-04T15:42:48.489Z,6.77
2023-01-04T15:45:14.956Z,7.50
2023-01-04T15:47:41.366Z,8.00
2023-01-04T15:50:08.803Z,6.33
2023-01-04T15:52:35.665Z,6.80
2023-01-04T15:55:02.105Z,6.60
2023-01-04T15:57:28.905Z,4.00
2023-01-04T15:59:55.993Z,4.17
2023-01-04T16:02:22.691Z,6.83
2023-01-04T16:04:49.810Z,5.53
2023-01-04T16:07:16.824Z,3.07
2023-01-04T16:09:43.350Z,6.37
2023-01-04T16:12:28.628Z,7.00
2023-01-04T16:14:55.179Z,5.50
2023-01-04T16:17:21.557Z,5.73
2023-01-04T16:19:48.018Z,6.07
2023-01-04T16:22:14.403Z,5.07
2023-01-04T16:27:34.741Z,7.20
2023-01-04T16:30:03.573Z,5.73
2023-01-04T16:32:30.035Z,6.87
2023-01-04T16:34:56.479Z,7.50
2023-01-04T16:37:26.765Z,5.83
2023-01-04T16:40:09.504Z,4.00
2023-01-04T16:42:37.522Z,5.80
2023-01-04T16:45:04.521Z,6.23
2023-01-04T16:47:41.403Z,4.20
2023-01-04T16:50:09.691Z,4.67
2023-01-04T16:52:36.212Z,8.47
2023-01-04T16:55:02.727Z,6.60
2023-01-04T16:57:29.214Z,5.43
2023-01-04T16:59:56.182Z,5.23
2023-01-04T17:02:23.379Z,8.00
2023-01-04T17:04:55.283Z,6.37
2023-01-04T17:07:22.307Z,5.20
2023-01-04T17:09:49.469Z,5.17
2023-01-04T17:17:48.740Z,4.67
2023-01-04T17:20:15.200Z,6.60
2023-01-04T17:22:41.618Z,5.37
2023-01-04T17:25:08.202Z,5.30
2023-01-04T17:27:35.792Z,5.07
2023-01-04T17:30:03.829Z,6.37
2023-01-04T17:32:30.247Z,6.37
2023-01-04T17:34:58.199Z,5.80
2023-01-04T17:37:25.162Z,7.03
2023-01-04T17:39:51.718Z,10.10
2023-01-04T17:42:18.183Z,4.40
2023-01-04T17:44:45.950Z,4.43
2023-01-04T17:47:12.363Z,6.47
2023-01-04T17:49:38.760Z,7.63
2023-01-04T17:52:07.088Z,6.07
2023-01-04T17:54:35.124Z,5.97
2023-01-04T17:57:02.156Z,6.50
2023-01-04T17:59:29.702Z,7.03
2023-01-04T18:01:56.396Z,6.90
2023-01-04T18:04:22.941Z,7.50
2023-01-04T18:06:49.336Z,7.13
2023-01-04T18:09:18.615Z,8.10
2023-01-04T18:11:48.982Z,4.20
2023-01-04T18:14:15.429Z,8.93
2023-01-04T18:16:58.285Z,7.80
2023-01-04T18:19:27.805Z,8.47
2023-01-04T18:21:55.457Z,10.57
2023-01-04T18:24:39.074Z,9.07
2023-01-04T18:27:25.110Z,7.10
2023-01-04T18:29:53.224Z,8.43
2023-01-04T18:32:20.741Z,8.97
2023-01-04T18:34:47.164Z,7.37
2023-01-04T18:37:15.561Z,7.43
2023-01-04T18:39:42.035Z,8.80
2023-01-04T18:42:08.409Z,7.93
2023-01-04T18:44:36.364Z,10.07
2023-01-04T18:47:04.238Z,11.50
2023-01-04T18:49:31.362Z,9.63
2023-01-04T18:51:57.889Z,7.40
2023-01-04T18:54:24.594Z,11.43
2023-01-04T18:56:55.702Z,9.10
2023-01-04T18:59:28.331Z,10.57
2023-01-04T19:02:00.541Z,9.37
2023-01-04T19:04:29.315Z,7.03
2023-01-04T19:06:55.892Z,10.63
2023-01-04T19:09:22.827Z,10.97
2023-01-04T19:11:49.222Z,11.03
2023-01-04T19:14:15.952Z,12.43
2023-01-04T19:16:42.506Z,8.97
2023-01-04T19:19:09.820Z,11.77
2023-01-04T19:21:37.498Z,9.80
2023-01-04T19:24:04.049Z,12.17
2023-01-04T19:26:30.441Z,9.23
2023-01-04T19:28:56.858Z,12.27
2023-01-04T19:31:24.219Z,11.97
2023-01-04T19:33:50.671Z,9.23
2023-01-04T19:36:18.706Z,10.70
2023-01-04T19:38:45.829Z,13.40
2023-01-04T19:41:21.017Z,11.50
2023-01-04T19:43:48.237Z,13.97
2023-01-04T19:46:15.340Z,11.47
2023-01-04T19:48:42.188Z,11.40
2023-01-04T19:51:12.678Z,14.00
2023-01-04T19:53:39.726Z,9.07
2023-01-04T19:56:07.004Z,12.20
2023-01-04T19:58:34.112Z,11.50
2023-01-04T20:01:00.784Z,9.90
2023-01-04T20:03:27.641Z,14.00
2023-01-04T20:05:54.979Z,9.37
2023-01-04T20:08:22.240Z,10.23
2023-01-04T20:10:56.636Z,10.13
2023-01-04T20:13:23.096Z,11.63
2023-01-04T20:15:51.245Z,11.87
2023-01-04T20:18:17.799Z,11.90
2023-01-04T20:20:45.231Z,11.53
2023-01-04T20:23:13.118Z,12.90
2023-01-04T20:25:41.241Z,13.70
2023-01-04T20:28:07.943Z,10.63
2023-01-04T20:30:34.850Z,14.33
2023-01-04T20:33:03.345Z,12.10
2023-01-04T20:35:29.904Z,11.67
2023-01-04T20:37:59.406Z,16.43
2023-01-04T20:40:27.393Z,10.73
2023-01-04T20:43:12.794Z,13.03
2023-01-04T20:45:47.204Z,18.10
2023-01-04T20:48:14.730Z,13.00
2023-01-04T20:50:42.443Z,13.67
2023-01-04T20:53:09.654Z,13.50
2023-01-04T20:55:40.787Z,16.93
2023-01-04T20:58:11.582Z,15.20
2023-01-04T21:00:38.299Z,17.33
2023-01-04T21:03:09.796Z,16.13
2023-01-04T21:05:44.556Z,10.53
2023-01-04T21:08:14.928Z,14.93
2023-01-04T21:10:43.448Z,15.30
2023-01-04T21:13:11.323Z,14.60
2023-01-04T21:15:38.440Z,10.67
2023-01-04T21:18:06.145Z,12.80
2023-01-04T21:20:32.986Z,12.23
2023-01-04T21:23:00.384Z,9.30
2023-01-04T21:25:27.940Z,9.33
2023-01-04T21:27:54.532Z,6.63
2023-01-04T21:30:21.119Z,11.63
2023-01-04T21:32:47.599Z,8.90
2023-01-04T21:35:14.002Z,12.37
2023-01-04T21:37:40.543Z,16.80
2023-01-04T21:40:07.723Z,15.93
2023-01-04T21:42:34.245Z,12.37
2023-01-04T21:45:00.726Z,10.27
2023-01-04T21:47:31.061Z,11.17
2023-01-04T21:49:57.908Z,16.47
2023-01-04T21:52:24.470Z,11.77
2023-01-04T21:54:51.926Z,11.50
2023-01-04T21:57:18.497Z,12.63
2023-01-04T21:59:44.935Z,16.20
2023-01-04T22:02:20.742Z,17.70
2023-01-04T22:04:48.229Z,15.83
2023-01-04T22:07:14.657Z,16.03
2023-01-04T22:09:41.083Z,13.97
2023-01-04T22:12:07.796Z,10.83
2023-01-04T22:14:34.886Z,15.20
2023-01-04T22:17:02.561Z,15.60
2023-01-04T22:19:29.109Z,14.63
2023-01-04T22:21:55.518Z,13.37
2023-01-04T22:24:22.302Z,11.77
2023-01-04T22:26:50.544Z,10.50
2023-01-04T22:29:17.224Z,13.17
2023-01-04T22:31:43.622Z,7.60
2023-01-04T22:34:10.048Z,12.40
2023-01-04T22:36:36.428Z,9.30
2023-01-04T22:39:02.997Z,12.23
2023-01-04T22:41:29.632Z,11.87
2023-01-04T22:44:01.178Z,15.13
2023-01-04T22:46:28.929Z,11.57
2023-01-04T22:48:56.067Z,16.37
2023-01-04T22:51:24.232Z,9.13
2023-01-04T22:53:55.358Z,12.53
2023-01-04T22:56:23.242Z,14.47
2023-01-04T22:58:54.231Z,17.10
2023-01-04T23:01:22.842Z,13.87
2023-01-04T23:03:52.713Z,12.47
2023-01-04T23:06:20.385Z,11.23
2023-01-04T23:08:46.833Z,12.43
2023-01-04T23:11:16.695Z,12.07
2023-01-04T23:14:08.831Z,11.63
2023-01-04T23:16:35.541Z,10.20
2023-01-04T23:19:03.119Z,11.90
2023-01-04T23:21:30.289Z,16.40
2023-01-04T23:23:56.901Z,14.73
2023-01-04T23:26:25.023Z,10.70
2023-01-04T23:28:51.688Z,10.33
2023-01-04T23:31:21.545Z,13.57
2023-01-04T23:33:52.177Z,11.57
2023-01-04T23:36:21.900Z,9.83
2023-01-04T23:38:53.553Z,12.30
2023-01-04T23:41:20.550Z,12.90
2023-01-04T23:43:46.941Z,13.57
2023-01-04T23:46:15.894Z,11.63
2023-01-04T23:48:42.844Z,20.83
2023-01-04T23:51:11.589Z,15.27
2023-01-04T23:53:38.049Z,13.90
2023-01-04T23:56:07.273Z,18.37
2023-01-04T23:58:34.277Z,17.67
